Time;durP1;ratioP1;P1;durP2;ratioP2;P2;SDS_P1;SDS_P2;PMS_P1;PMS_P2;Temp;Humidity;BMP_temperature;BMP_pressure;BME280_temperature;BME280_humidity;BME280_pressure;Samples;Min_cycle;Max_cycle;Signal;HPM_P1;HPM_P2
2024/01/27 02:35:54;;;;;;;2.97;1.00;;;;;;;8.61;88.41;102161.38;6250492;22;1304721;-87
2024/01/27 02:38:19;;;;;;;2.42;0.45;;;;;;;8.48;89.03;102164.88;6251671;22;20510;-87
2024/01/27 02:40:45;;;;;;;3.20;0.90;;;;;;;8.56;89.13;102163.34;6223954;22;20065;-87
2024/01/27 02:43:10;;;;;;;13.63;1.15;;;;;;;8.57;88.88;102165.75;6251618;22;20030;-87
2024/01/27 02:45:36;;;;;;;1.35;0.75;;;;;;;8.66;88.27;102169.31;6220734;22;20031;-87
2024/01/27 02:48:02;;;;;;;4.47;1.10;;;;;;;8.61;88.50;102180.19;6241145;22;20035;-87
2024/01/27 02:50:27;;;;;;;3.60;1.15;;;;;;;8.71;87.57;102179.91;6215799;22;20015;-87
2024/01/27 02:52:52;;;;;;;5.63;0.70;;;;;;;8.82;87.60;102186.66;6242219;22;20022;-87
2024/01/27 02:55:18;;;;;;;6.18;1.27;;;;;;;8.67;87.28;102186.22;6217706;22;20007;-86
2024/01/27 02:57:43;;;;;;;5.88;1.02;;;;;;;8.64;87.96;102190.28;6276371;22;20016;-87
2024/01/27 03:00:09;;;;;;;1.90;0.98;;;;;;;8.69;88.17;102184.03;6247857;22;20033;-86
2024/01/27 03:02:35;;;;;;;14.27;1.27;;;;;;;8.67;88.32;102187.00;6223528;22;20033;-87
2024/01/27 03:05:00;;;;;;;4.57;1.63;;;;;;;8.79;88.08;102187.25;6250876;22;20019;-86
2024/01/27 03:07:26;;;;;;;7.95;1.13;;;;;;;8.75;88.16;102191.63;6225675;22;20004;-87
2024/01/27 03:09:51;;;;;;;1.15;0.43;;;;;;;8.56;88.95;102198.25;6279124;22;20011;-87
2024/01/27 03:12:18;;;;;;;6.45;0.70;;;;;;;8.66;88.29;102201.53;6253001;22;20022;-87
2024/01/27 03:14:44;;;;;;;8.98;1.48;;;;;;;8.64;88.21;102198.34;6279221;22;20012;-87
2024/01/27 03:17:10;;;;;;;8.90;0.90;;;;;;;8.76;87.91;102200.50;6252834;22;20353;-87
2024/01/27 03:19:35;;;;;;;1.80;0.75;;;;;;;8.72;87.76;102205.69;6253130;22;20083;-87
2024/01/27 03:22:00;;;;;;;1.95;0.73;;;;;;;8.45;89.54;102202.28;6261367;22;20007;-87
2024/01/27 03:24:26;;;;;;;3.80;0.70;;;;;;;8.52;89.27;102211.50;6263597;22;20489;-87
2024/01/27 03:26:51;;;;;;;2.65;0.45;;;;;;;8.57;88.29;102208.72;6251943;22;20429;-87
2024/01/27 03:29:17;;;;;;;1.88;0.73;;;;;;;8.58;88.75;102209.50;6224927;22;20372;-87
2024/01/27 03:31:42;;;;;;;0.85;0.70;;;;;;;8.43;89.12;102207.16;6223549;22;20435;-87
2024/01/27 03:34:08;;;;;;;3.53;1.05;;;;;;;8.65;88.53;102216.03;6249793;22;20090;-87
2024/01/27 03:36:33;;;;;;;6.13;1.05;;;;;;;8.48;89.04;102201.69;6226760;22;20015;-87
2024/01/27 03:38:59;;;;;;;2.63;1.55;;;;;;;8.51;89.35;102209.13;6249056;22;20047;-86
2024/01/27 03:41:25;;;;;;;3.88;0.80;;;;;;;8.44;89.40;102211.44;6224901;22;20332;-87
2024/01/27 03:43:53;;;;;;;7.72;1.20;;;;;;;8.55;89.12;102215.47;6251221;22;20027;-87
2024/01/27 03:46:19;;;;;;;3.05;0.47;;;;;;;8.47;89.30;102227.72;6224891;22;20020;-87
2024/01/27 03:49:05;;;;;;;16.58;1.42;;;;;;;8.52;89.66;102211.50;6303413;22;20463;-90
2024/01/27 03:51:51;;;;;;;9.82;1.05;;;;;;;8.48;89.93;102210.50;6265570;22;20038;-90
2024/01/27 03:54:27;;;;;;;1.65;0.55;;;;;;;8.41;89.29;102220.06;6280668;22;20479;-90
2024/01/27 03:56:56;;;;;;;5.43;1.20;;;;;;;8.55;89.56;102223.53;6277237;22;20019;-90
2024/01/27 04:05:44;;;;;;;7.70;0.90;;;;;;;8.51;89.39;102241.34;6245496;22;20434;-89
2024/01/27 04:08:53;;;;;;;0.93;0.70;;;;;;;8.51;89.23;102236.78;6204617;23;20058;-90
2024/01/27 04:11:29;;;;;;;4.72;1.08;;;;;;;8.37;89.97;102230.63;6211857;23;20017;-89
2024/01/27 04:14:29;;;;;;;3.67;0.77;;;;;;;8.44;89.97;102239.06;6198687;23;20008;-89
2024/01/27 04:17:15;;;;;;;4.70;1.17;;;;;;;8.44;89.76;102243.66;6173941;23;20012;-89
2024/01/27 04:23:27;;;;;;;3.45;0.60;;;;;;;8.50;89.48;102248.59;6225591;23;20027;-90
2024/01/27 04:26:10;;;;;;;9.60;0.90;;;;;;;8.17;90.99;102247.09;6162501;23;20013;-90
2024/01/27 04:28:57;;;;;;;3.90;1.40;;;;;;;8.18;90.70;102246.81;6212575;23;20024;-90
2024/01/27 04:31:59;;;;;;;2.55;1.17;;;;;;;8.31;90.22;102258.66;6163380;23;20009;-90
2024/01/27 04:34:45;;;;;;;8.90;1.15;;;;;;;8.28;90.58;102243.16;6181397;23;20095;-90
2024/01/27 04:37:14;;;;;;;;;;;;;;;8.02;91.34;102252.78;6163498;23;20016;-89
2024/01/27 04:39:53;;;;;;;3.33;1.73;;;;;;;7.98;91.92;102251.78;6161284;23;20297;-90
2024/01/27 04:42:53;;;;;;;;;;;;;;;;;;;;;
2024/01/27 04:45:30;;;;;;;3.17;0.68;;;;;;;8.10;91.90;102258.25;6223644;23;20009;-89
2024/01/27 04:48:01;;;;;;;4.20;1.65;;;;;;;8.21;91.39;102256.16;6186041;23;20075;-89
2024/01/27 04:50:34;;;;;;;5.07;0.98;;;;;;;8.01;91.81;102264.59;6140504;23;20080;-89
2024/01/27 04:53:02;;;;;;;13.90;2.22;;;;;;;8.04;92.23;102269.38;6181794;23;20020;-89
2024/01/27 04:55:34;;;;;;;5.20;0.98;;;;;;;8.21;91.84;102265.00;6207699;23;19997;-89
2024/01/27 05:01:32;;;;;;;;;;;;;;;;;;;;;
2024/01/27 05:04:06;;;;;;;1.55;0.80;;;;;;;8.15;91.73;102276.13;6212693;23;20008;-90
2024/01/27 05:07:06;;;;;;;2.85;0.77;;;;;;;8.28;91.07;102269.19;6184123;23;20478;-90
2024/01/27 05:10:14;;;;;;;3.25;1.05;;;;;;;8.10;91.72;102273.53;6163629;23;20535;-90
2024/01/27 05:12:46;;;;;;;2.55;1.00;;;;;;;8.21;91.47;102264.19;6162086;23;20012;-89
2024/01/27 05:15:25;;;;;;;6.70;1.23;;;;;;;8.11;91.79;102280.47;6183735;23;20027;-90
2024/01/27 05:17:54;;;;;;;5.40;0.57;;;;;;;8.23;91.12;102288.84;6185841;23;20009;-89
2024/01/27 05:20:47;;;;;;;4.18;0.50;;;;;;;8.12;91.19;102293.63;6221273;23;20012;-88
2024/01/27 05:23:27;;;;;;;3.22;1.25;;;;;;;8.05;91.40;102292.44;6162499;23;20012;-90
2024/01/27 05:26:05;;;;;;;2.30;0.82;;;;;;;8.12;91.55;102295.50;6213201;23;20004;-90
2024/01/27 05:28:40;;;;;;;4.88;0.88;;;;;;;8.03;91.55;102297.28;6188484;23;20028;-90
2024/01/27 05:31:31;;;;;;;2.70;1.00;;;;;;;8.04;92.48;102294.31;6160979;23;20012;-90
2024/01/27 05:34:14;;;;;;;1.25;0.63;;;;;;;7.95;92.04;102289.94;6161380;23;20023;-89
2024/01/27 05:36:57;;;;;;;14.52;0.88;;;;;;;8.00;91.47;102308.59;6212868;23;20012;-89
2024/01/27 05:39:39;;;;;;;0.98;0.70;;;;;;;7.96;91.94;102305.72;6213403;23;20012;-89
2024/01/27 05:42:12;;;;;;;4.43;1.10;;;;;;;7.88;92.73;102308.28;6193457;23;20021;-90
2024/01/27 05:44:47;;;;;;;4.35;1.15;;;;;;;8.05;91.78;102311.22;6161416;23;20008;-90
2024/01/27 05:51:04;;;;;;;5.60;1.15;;;;;;;7.89;93.01;102324.09;6227844;23;20359;-89
2024/01/27 05:53:40;;;;;;;4.30;0.85;;;;;;;7.84;93.12;102326.06;6214987;23;20017;-89
2024/01/27 05:56:06;;;;;;;1.42;1.20;;;;;;;7.91;92.17;102319.22;6189830;23;20079;-89
2024/01/27 05:58:42;;;;;;;3.70;1.10;;;;;;;7.81;92.71;102327.44;6217247;23;20055;-89
2024/01/27 06:01:17;;;;;;;1.02;0.75;;;;;;;7.63;93.14;102322.91;6213097;23;20068;-89
2024/01/27 06:03:46;;;;;;;;;;;;;;;7.65;93.43;102331.47;6193313;23;20012;-89
2024/01/27 06:06:22;;;;;;;2.45;0.70;;;;;;;7.77;93.02;102328.31;6175537;23;19916;-89
2024/01/27 06:08:59;;;;;;;15.52;1.35;;;;;;;7.85;92.76;102331.13;6214134;23;20015;-89
2024/01/27 06:12:03;;;;;;;0.63;0.63;;;;;;;7.81;92.33;102340.06;6121229;23;20465;-89
2024/01/27 06:14:58;;;;;;;4.28;0.93;;;;;;;7.72;92.72;102334.59;6097036;23;20013;-90
2024/01/27 06:17:39;;;;;;;1.33;0.82;;;;;;;7.75;92.89;102344.72;6118566;23;20010;-89
2024/01/27 06:20:19;;;;;;;4.35;0.93;;;;;;;7.76;92.66;102348.19;6138768;23;20062;-89
2024/01/27 06:22:52;;;;;;;2.63;0.85;;;;;;;7.74;93.01;102350.38;6162235;23;20039;-89
2024/01/27 06:25:44;;;;;;;3.30;0.73;;;;;;;7.73;92.83;102354.94;6183190;23;20036;-89
2024/01/27 06:28:25;;;;;;;1.83;0.90;;;;;;;7.75;92.49;102350.06;6166003;23;20020;-89
2024/01/27 06:31:41;;;;;;;0.73;0.50;;;;;;;7.60;92.94;102366.41;6176349;23;20020;-90
2024/01/27 06:37:04;;;;;;;3.80;0.93;;;;;;;7.68;93.35;102364.94;6256053;22;20011;-86
2024/01/27 06:39:31;;;;;;;0.70;0.70;;;;;;;7.70;92.83;102381.53;6214558;23;20062;-86
2024/01/27 06:41:56;;;;;;;4.85;1.08;;;;;;;7.70;92.65;102382.34;6215973;23;20313;-86
2024/01/27 06:44:22;;;;;;;1.70;0.57;;;;;;;7.67;92.82;102388.28;6191069;23;20064;-88
2024/01/27 06:46:50;;;;;;;5.25;0.80;;;;;;;7.60;94.05;102389.72;6216213;22;20016;-88
2024/01/27 06:49:16;;;;;;;2.92;1.10;;;;;;;7.68;93.72;102391.75;6227934;23;20023;-88
2024/01/27 11:52:46;;;;;;;7.03;0.90;;;;;;;10.13;77.38;102562.75;6256584;22;20132;-89
2024/01/27 11:55:12;;;;;;;5.70;1.27;;;;;;;10.23;77.32;102567.91;6215170;22;20007;-86
2024/01/27 11:57:38;;;;;;;5.18;1.23;;;;;;;10.23;76.47;102556.34;6273009;22;20186;-89
2024/01/27 12:00:04;;;;;;;0.70;0.65;;;;;;;10.27;76.80;102571.59;6247646;22;20083;-88
2024/01/27 12:02:32;;;;;;;0.95;0.80;;;;;;;10.25;75.80;102581.06;6271406;22;20008;-89
2024/01/27 12:04:58;;;;;;;2.33;1.10;;;;;;;10.28;75.71;102583.16;6219404;22;20011;-88
2024/01/27 12:07:26;;;;;;;3.15;0.95;;;;;;;10.35;75.77;102578.94;6219950;22;20008;-87
2024/01/27 12:10:02;;;;;;;2.05;1.63;;;;;;;10.40;75.15;102576.13;6222638;22;20057;-90
2024/01/27 12:12:31;;;;;;;3.13;0.90;;;;;;;10.40;74.81;102573.44;6210651;22;20073;-87
2024/01/27 12:14:56;;;;;;;3.08;1.23;;;;;;;10.46;74.36;102577.59;6205951;22;20003;-88
2024/01/27 12:17:34;;;;;;;3.80;1.17;;;;;;;10.48;74.62;102585.38;6230439;22;20004;-89
2024/01/27 12:20:16;;;;;;;1.52;0.60;;;;;;;10.49;74.97;102585.06;6245790;22;20016;-87
2024/01/27 12:22:45;;;;;;;1.58;0.65;;;;;;;10.41;75.23;102582.31;6220409;22;20034;-86
2024/01/27 12:25:15;;;;;;;0.63;0.55;;;;;;;10.33;75.03;102583.84;6269254;22;19999;-88
2024/01/27 12:28:07;;;;;;;5.57;0.65;;;;;;;10.56;74.91;102582.75;6214955;22;20018;-86
2024/01/27 12:30:35;;;;;;;2.00;0.60;;;;;;;10.44;74.51;102585.19;6245142;22;20031;-88
2024/01/27 12:33:11;;;;;;;1.30;0.93;;;;;;;10.42;74.57;102584.69;6244740;22;20015;-88
2024/01/27 12:35:38;;;;;;;4.35;1.08;;;;;;;10.48;74.42;102588.84;6270028;22;20913;-88
2024/01/27 12:38:06;;;;;;;5.88;1.45;;;;;;;10.48;74.02;102583.47;6243898;22;20655;-88
2024/01/27 12:40:35;;;;;;;6.20;0.60;;;;;;;10.46;74.19;102579.47;6218442;22;20007;-88
2024/01/27 12:43:00;;;;;;;6.55;1.17;;;;;;;10.66;73.68;102577.09;6216285;22;20111;-86
2024/01/27 12:45:28;;;;;;;0.80;0.80;;;;;;;10.70;73.57;102577.28;6241900;22;20016;-85
2024/01/27 12:47:54;;;;;;;19.27;1.38;;;;;;;10.82;73.09;102580.19;6217052;22;20548;-87
2024/01/27 12:50:20;;;;;;;3.08;1.15;;;;;;;10.81;72.06;102579.41;6207966;22;20008;-87
2024/01/27 12:52:45;;;;;;;6.05;1.10;;;;;;;10.73;72.43;102571.28;6253448;22;20440;-87
2024/01/27 12:55:11;;;;;;;3.55;0.85;;;;;;;10.76;73.28;102568.75;6215013;22;20330;-87
2024/01/27 12:57:36;;;;;;;4.20;1.17;;;;;;;10.82;72.86;102570.22;6207620;22;20007;-88
2024/01/27 13:00:09;;;;;;;1.20;0.63;;;;;;;10.94;72.42;102576.94;6205809;22;20121;-88
2024/01/27 13:02:37;;;;;;;0.98;0.73;;;;;;;10.81;72.39;102570.53;6210396;22;20011;-87
2024/01/27 13:05:03;;;;;;;3.65;1.30;;;;;;;10.87;72.02;102577.38;6261376;22;20695;-87
2024/01/27 13:07:30;;;;;;;3.67;0.75;;;;;;;10.72;72.48;102581.25;6242359;22;20004;-87
2024/01/27 13:10:04;;;;;;;1.35;0.60;;;;;;;10.59;72.81;102574.03;6242697;22;20094;-87
2024/01/27 13:12:33;;;;;;;5.07;1.17;;;;;;;10.55;73.38;102575.75;6269675;22;20015;-87
2024/01/27 13:14:59;;;;;;;2.45;1.23;;;;;;;10.61;73.70;102569.13;6218764;22;20015;-88
2024/01/27 13:17:27;;;;;;;1.75;0.65;;;;;;;10.74;72.97;102567.47;6270644;22;20544;-87
2024/01/27 13:19:52;;;;;;;4.47;0.70;;;;;;;10.63;72.89;102572.31;6238195;22;20391;-87
2024/01/27 13:22:24;;;;;;;2.15;0.88;;;;;;;10.61;73.47;102569.13;6214449;22;20011;-88
2024/01/27 13:24:49;;;;;;;6.18;1.20;;;;;;;10.63;73.95;102572.31;6263175;22;20012;-90
2024/01/27 13:27:15;;;;;;;1.65;0.70;;;;;;;10.81;74.66;102575.91;6274555;22;20084;-84
2024/01/27 13:29:40;;;;;;;7.85;1.63;;;;;;;10.87;74.67;102572.00;6252219;22;20332;-83
2024/01/27 13:32:06;;;;;;;4.32;0.70;;;;;;;11.06;72.28;102572.56;6288078;22;20393;-84
2024/01/27 13:34:32;;;;;;;4.80;1.38;;;;;;;11.09;71.71;102571.94;6223144;22;20011;-87
2024/01/27 13:37:00;;;;;;;3.45;0.93;;;;;;;11.02;72.04;102574.28;6146894;23;20016;-87
2024/01/27 13:39:25;;;;;;;3.72;1.10;;;;;;;11.07;72.51;102584.16;6176465;23;20447;-86
2024/01/27 13:41:51;;;;;;;1.55;0.80;;;;;;;11.10;72.23;102578.94;6206911;23;20028;-87
2024/01/27 13:44:19;;;;;;;1.63;0.50;;;;;;;11.30;70.68;102580.28;6177830;23;20118;-86
2024/01/27 13:46:44;;;;;;;1.95;0.50;;;;;;;11.43;71.14;102579.38;6180548;23;20001;-89
2024/01/27 13:49:10;;;;;;;9.95;1.00;;;;;;;11.35;71.06;102572.84;6205176;23;20016;-87
2024/01/27 13:51:36;;;;;;;4.50;0.70;;;;;;;11.42;70.34;102575.09;6180227;23;20008;-88
2024/01/27 13:54:08;;;;;;;5.32;0.85;;;;;;;11.55;70.48;102574.19;6145679;23;20019;-87
2024/01/27 13:59:33;;;;;;;1.52;1.00;;;;;;;11.58;70.86;102585.13;6152047;23;20112;-88
2024/01/27 14:02:00;;;;;;;0.70;0.63;;;;;;;11.66;70.41;102583.59;6169647;23;20411;-86
2024/01/27 14:04:39;;;;;;;4.93;1.00;;;;;;;11.61;70.93;102581.03;6142303;23;20120;-89
2024/01/27 14:07:36;;;;;;;3.20;0.80;;;;;;;11.64;70.70;102585.78;6159255;23;20021;-89
2024/01/27 14:10:02;;;;;;;3.50;0.90;;;;;;;11.57;71.37;102596.25;6151526;23;20013;-88
2024/01/27 14:12:56;;;;;;;3.22;0.70;;;;;;;11.55;71.40;102593.88;6179412;23;20011;-88
2024/01/27 14:15:22;;;;;;;1.48;1.38;;;;;;;11.49;71.77;102578.94;6165687;23;20017;-88
2024/01/27 14:17:48;;;;;;;4.05;1.40;;;;;;;11.60;71.46;102584.81;6152300;23;20028;-88
2024/01/27 14:20:22;;;;;;;6.35;1.38;;;;;;;11.42;71.91;102588.59;6175546;23;20260;-88
2024/01/27 14:22:50;;;;;;;4.65;0.95;;;;;;;11.17;73.19;102586.59;6151980;23;20451;-86
2024/01/27 14:25:16;;;;;;;2.92;1.20;;;;;;;11.04;74.02;102582.84;6153007;23;20020;-87
2024/01/27 14:27:42;;;;;;;2.97;1.30;;;;;;;11.13;73.69;102594.47;6177357;23;20029;-87
2024/01/27 14:30:08;;;;;;;1.48;0.90;;;;;;;11.15;73.44;102589.56;6153297;23;20048;-87
2024/01/27 14:32:34;;;;;;;0.70;0.70;;;;;;;11.15;73.56;102586.09;6178182;23;20013;-87
2024/01/27 14:34:59;;;;;;;4.30;1.10;;;;;;;11.09;73.93;102590.03;6154391;23;20466;-88
2024/01/27 14:37:25;;;;;;;2.35;1.20;;;;;;;10.84;74.50;102592.25;6154086;23;20020;-87
2024/01/27 14:39:51;;;;;;;3.42;0.82;;;;;;;10.82;75.23;102586.38;6123702;23;20016;-87
2024/01/27 14:42:19;;;;;;;3.95;1.25;;;;;;;10.70;75.52;102591.53;6144234;23;20120;-89
2024/01/27 14:44:45;;;;;;;1.52;1.02;;;;;;;10.67;75.49;102584.06;6146216;23;20009;-88
2024/01/27 14:47:11;;;;;;;1.52;1.10;;;;;;;10.57;76.70;102583.50;6152501;23;20419;-89
2024/01/27 14:49:37;;;;;;;3.10;1.25;;;;;;;10.66;76.12;102587.09;6149743;23;20078;-90
2024/01/27 14:52:05;;;;;;;3.05;1.30;;;;;;;10.62;76.48;102586.09;6176513;23;20458;-89
2024/01/27 14:54:31;;;;;;;4.50;1.33;;;;;;;10.59;76.59;102592.09;6145191;23;20012;-89
2024/01/27 14:57:24;;;;;;;10.55;1.52;;;;;;;10.43;76.93;102588.19;6146586;23;20318;-89
2024/01/27 15:00:04;;;;;;;6.57;1.35;;;;;;;10.45;76.52;102597.53;6122155;23;20013;-90
2024/01/27 15:03:12;;;;;;;4.35;0.95;;;;;;;10.45;76.62;102589.47;6120084;23;20049;-88
2024/01/27 15:05:40;;;;;;;3.88;0.93;;;;;;;10.46;77.19;102593.75;6146069;23;20017;-90
2024/01/27 15:08:31;;;;;;;1.73;0.95;;;;;;;10.49;77.22;102597.75;6147762;23;20021;-87
2024/01/27 15:24:49;;;;;;;6.40;2.08;;;;;;;10.15;79.31;102598.25;6224401;22;20023;-83
2024/01/27 15:27:14;;;;;;;7.03;1.48;;;;;;;10.28;78.59;102596.63;6245282;23;20012;-83
2024/01/27 15:29:40;;;;;;;8.95;2.10;;;;;;;10.30;79.04;102605.97;6254149;23;20043;-86
2024/01/27 15:32:07;;;;;;;3.40;1.40;;;;;;;10.11;79.85;102613.41;6220381;23;19999;-86
2024/01/27 15:34:35;;;;;;;6.45;1.55;;;;;;;10.15;79.34;102608.22;6219163;23;20098;-86
2024/01/27 15:37:03;;;;;;;2.60;1.85;;;;;;;10.11;79.42;102602.63;6195353;23;20430;-86
2024/01/27 15:39:28;;;;;;;6.30;1.58;;;;;;;9.88;80.12;102603.66;6220623;23;20095;-87
2024/01/27 15:41:54;;;;;;;5.88;1.58;;;;;;;9.79;80.41;102611.63;6219828;23;20273;-87
2024/01/27 15:44:19;;;;;;;4.97;1.27;;;;;;;9.68;81.00;102601.38;6195108;23;20059;-87
2024/01/27 15:46:45;;;;;;;2.53;1.17;;;;;;;9.62;81.27;102610.66;6194273;23;20094;-86
2024/01/27 15:49:10;;;;;;;7.07;1.63;;;;;;;9.67;80.66;102619.44;6219640;23;20012;-89
2024/01/27 15:51:37;;;;;;;2.95;1.40;;;;;;;9.72;81.66;102626.59;6239048;23;20453;-83
2024/01/27 15:54:03;;;;;;;4.68;2.08;;;;;;;9.80;80.93;102615.13;6231404;23;20012;-82
2024/01/27 15:56:28;;;;;;;1.30;1.13;;;;;;;9.75;80.64;102613.34;6203505;23;20008;-83
2024/01/27 15:58:54;;;;;;;1.73;1.45;;;;;;;9.72;80.90;102629.28;6202746;23;20043;-85
2024/01/27 16:01:19;;;;;;;6.95;1.27;;;;;;;9.65;81.03;102618.13;6192334;23;20103;-83
2024/01/27 16:03:45;;;;;;;1.88;1.17;;;;;;;9.56;81.12;102630.69;6222505;23;20107;-85
2024/01/27 16:06:10;;;;;;;3.40;1.50;;;;;;;9.51;81.40;102628.88;6171287;23;20095;-85
2024/01/27 16:08:36;;;;;;;13.80;1.80;;;;;;;9.47;81.81;102635.94;6194770;23;20055;-86
2024/01/27 16:11:01;;;;;;;1.67;1.17;;;;;;;9.41;81.92;102639.03;6222913;23;20008;-85
2024/01/27 16:13:27;;;;;;;4.47;2.22;;;;;;;9.36;82.36;102639.13;6196999;23;20043;-83
2024/01/27 16:15:53;;;;;;;4.20;2.00;;;;;;;9.40;82.90;102650.88;6197361;23;20390;-86
2024/01/27 16:18:18;;;;;;;2.05;1.30;;;;;;;9.36;82.89;102626.50;6196179;23;20356;-85
2024/01/27 16:20:49;;;;;;;11.55;2.25;;;;;;;9.26;83.18;102631.25;6195492;23;20865;-85
2024/01/27 16:23:14;;;;;;;2.17;1.45;;;;;;;9.17;83.94;102630.34;6197857;23;20019;-84
2024/01/27 16:25:40;;;;;;;5.63;1.45;;;;;;;9.13;84.35;102634.72;6223167;22;20016;-85
2024/01/27 16:28:09;;;;;;;3.50;1.50;;;;;;;9.16;84.19;102636.78;6253963;22;20007;-85
2024/01/27 16:30:35;;;;;;;4.97;2.00;;;;;;;9.19;83.80;102631.66;6228151;22;20435;-84
2024/01/27 16:33:00;;;;;;;2.35;1.80;;;;;;;8.93;85.72;102635.84;6200961;22;20027;-83
2024/01/27 16:35:26;;;;;;;8.75;2.30;;;;;;;8.97;84.96;102634.97;6203053;22;20015;-82
2024/01/27 16:37:52;;;;;;;3.13;1.60;;;;;;;9.07;84.21;102639.38;6201714;22;20327;-85
2024/01/27 16:40:18;;;;;;;7.13;2.83;;;;;;;9.07;84.75;102647.44;6255978;22;20006;-84
2024/01/27 16:42:43;;;;;;;3.53;1.85;;;;;;;9.04;84.78;102650.72;6228518;22;20727;-85
2024/01/27 16:45:09;;;;;;;2.85;1.42;;;;;;;9.06;84.53;102649.31;6229380;22;20007;-83
2024/01/27 16:47:35;;;;;;;6.57;2.38;;;;;;;8.95;84.93;102647.09;6240349;22;20142;-85
2024/01/27 16:50:03;;;;;;;10.18;1.63;;;;;;;8.94;85.13;102651.66;6243736;22;20031;-83
2024/01/27 16:52:29;;;;;;;4.20;1.90;;;;;;;8.89;85.32;102651.78;6235929;22;20472;-84
2024/01/27 16:54:55;;;;;;;6.10;1.98;;;;;;;8.87;85.54;102653.94;6213357;22;20011;-85
2024/01/27 16:57:21;;;;;;;5.65;1.77;;;;;;;8.79;86.00;102654.63;6257999;22;20339;-84
2024/01/27 16:59:46;;;;;;;4.65;1.67;;;;;;;8.81;85.77;102657.81;6238864;22;20074;-84
2024/01/27 17:02:12;;;;;;;3.78;2.03;;;;;;;8.77;85.99;102647.94;6202280;22;20026;-84
2024/01/27 17:04:39;;;;;;;8.75;2.28;;;;;;;8.74;85.84;102665.44;6255913;22;20008;-85
2024/01/27 17:07:08;;;;;;;5.72;1.60;;;;;;;8.78;85.91;102666.47;6237186;22;20007;-85
2024/01/27 17:09:35;;;;;;;8.90;2.15;;;;;;;8.74;85.90;102665.44;6227551;22;20805;-84
2024/01/27 17:12:01;;;;;;;2.60;2.05;;;;;;;8.68;86.46;102655.88;6254020;22;20098;-84
2024/01/27 17:14:26;;;;;;;13.93;2.10;;;;;;;8.68;86.15;102660.44;6228158;22;20031;-82
2024/01/27 17:16:54;;;;;;;7.78;1.70;;;;;;;8.68;86.51;102663.13;6225897;22;20405;-82
2024/01/27 17:19:20;;;;;;;3.83;1.80;;;;;;;8.64;85.92;102670.16;6228402;22;20065;-82
2024/01/27 17:21:46;;;;;;;10.57;1.90;;;;;;;8.68;86.44;102666.63;6256617;22;20012;-83
2024/01/27 17:24:11;;;;;;;5.47;2.00;;;;;;;8.66;86.33;102676.84;6268528;22;20023;-84
2024/01/27 17:26:37;;;;;;;4.30;1.92;;;;;;;8.56;86.54;102668.13;6206201;22;20011;-83
2024/01/27 17:29:02;;;;;;;3.83;1.65;;;;;;;8.56;86.82;102655.50;6201456;22;20003;-83
2024/01/27 17:31:28;;;;;;;5.38;1.33;;;;;;;8.44;87.13;102665.88;6228032;22;20508;-81
2024/01/27 17:33:53;;;;;;;3.70;1.58;;;;;;;8.45;87.44;102674.75;6240255;22;20045;-82
2024/01/27 17:36:20;;;;;;;8.25;2.05;;;;;;;8.48;86.98;102664.22;6265751;22;20015;-82
2024/01/27 17:38:46;;;;;;;4.50;2.13;;;;;;;8.46;87.02;102666.38;6256880;22;20014;-82
2024/01/27 17:41:12;;;;;;;1.88;1.77;;;;;;;8.52;86.98;102675.16;6258842;22;20031;-81
2024/01/27 17:43:37;;;;;;;5.30;1.95;;;;;;;8.44;87.01;102676.63;6205874;22;20018;-82
2024/01/27 17:46:03;;;;;;;7.22;1.70;;;;;;;8.36;87.22;102669.25;6258103;22;20034;-84
2024/01/27 17:48:28;;;;;;;6.22;2.25;;;;;;;8.40;87.60;102669.47;6228979;22;20144;-83
2024/01/27 17:50:55;;;;;;;5.35;2.35;;;;;;;8.39;87.33;102676.69;6229107;22;20026;-83
2024/01/27 17:53:20;;;;;;;10.68;2.95;;;;;;;8.31;87.69;102671.16;6239705;22;20454;-83
2024/01/27 17:55:46;;;;;;;8.05;1.90;;;;;;;8.34;87.71;102676.78;6253719;22;20018;-82
2024/01/27 17:58:12;;;;;;;8.35;2.63;;;;;;;8.36;87.17;102685.34;6229567;22;20012;-84
2024/01/27 18:00:38;;;;;;;6.53;2.13;;;;;;;8.30;86.95;102680.31;6229874;22;20010;-83
2024/01/27 18:03:04;;;;;;;6.93;2.30;;;;;;;8.21;87.26;102686.31;6241162;22;20106;-83
2024/01/27 18:05:30;;;;;;;4.10;2.30;;;;;;;8.14;87.80;102682.38;6272947;22;20388;-82
2024/01/27 18:07:55;;;;;;;6.25;2.22;;;;;;;8.18;87.48;102686.09;6237511;22;20451;-82
2024/01/27 18:10:21;;;;;;;4.93;2.45;;;;;;;8.16;87.74;102682.88;6236405;22;20087;-82
2024/01/27 18:12:46;;;;;;;5.82;2.60;;;;;;;8.12;87.80;102689.91;6241094;22;20011;-84
2024/01/27 18:15:12;;;;;;;2.13;1.92;;;;;;;8.08;87.86;102694.25;6245092;22;20081;-83
2024/01/27 18:17:38;;;;;;;5.68;2.28;;;;;;;8.01;88.30;102685.75;6247341;22;20490;-84
2024/01/27 18:20:04;;;;;;;3.72;2.30;;;;;;;7.99;87.83;102696.00;6222769;22;20007;-82
2024/01/27 18:22:30;;;;;;;9.20;2.35;;;;;;;8.01;87.93;102685.75;6248153;22;20019;-83
2024/01/27 18:24:56;;;;;;;4.93;2.15;;;;;;;8.02;87.99;102690.03;6221090;22;20346;-84
2024/01/27 18:27:22;;;;;;;9.35;2.72;;;;;;;7.95;88.23;102692.28;6282031;22;19999;-84
2024/01/27 18:29:48;;;;;;;5.40;2.30;;;;;;;7.89;88.06;102685.38;6244899;22;20007;-82
2024/01/27 18:32:13;;;;;;;3.30;2.40;;;;;;;7.88;88.22;102691.81;6243292;22;20016;-82
2024/01/27 18:34:39;;;;;;;5.50;2.55;;;;;;;7.85;88.05;102695.06;6246733;22;20094;-83
2024/01/27 18:37:04;;;;;;;3.15;2.30;;;;;;;7.92;87.89;102690.16;6255622;22;20071;-83
2024/01/27 18:39:30;;;;;;;5.03;2.08;;;;;;;7.86;88.21;102702.81;6221907;22;20096;-82
2024/01/27 18:41:55;;;;;;;5.57;2.40;;;;;;;7.89;88.13;102701.47;6221914;22;20007;-82
2024/01/27 18:44:21;;;;;;;5.93;2.33;;;;;;;7.83;88.79;102699.91;6256583;22;20015;-84
2024/01/27 18:46:47;;;;;;;8.45;2.53;;;;;;;7.77;89.25;102701.06;6245599;22;20011;-82
2024/01/27 18:49:17;;;;;;;6.35;2.58;;;;;;;7.80;89.18;102698.59;6246478;22;20474;-83
2024/01/27 18:51:43;;;;;;;8.07;2.42;;;;;;;7.77;89.22;102696.50;6221779;22;20315;-82
2024/01/27 18:54:12;;;;;;;4.70;2.53;;;;;;;7.78;89.18;102694.63;6261553;22;20073;-82
2024/01/27 18:56:37;;;;;;;11.88;2.55;;;;;;;7.73;89.30;102700.03;6250575;22;20341;-82
2024/01/27 18:59:03;;;;;;;4.72;1.85;;;;;;;7.71;89.43;102704.88;6277366;22;20023;-83
2024/01/27 19:01:28;;;;;;;3.03;1.85;;;;;;;7.75;89.55;102700.53;6249724;22;20072;-82
2024/01/27 19:03:54;;;;;;;5.15;2.75;;;;;;;7.69;89.28;102707.84;6278699;22;20007;-83
2024/01/27 19:06:19;;;;;;;3.25;1.73;;;;;;;7.72;89.23;102703.81;6276267;22;20526;-83
2024/01/27 19:08:45;;;;;;;4.65;2.40;;;;;;;7.68;89.31;102697.41;6247209;22;20470;-82
2024/01/27 19:11:10;;;;;;;9.90;2.35;;;;;;;7.69;89.31;102691.75;6248732;22;20018;-83
2024/01/27 19:13:36;;;;;;;6.78;2.17;;;;;;;7.69;89.43;102701.66;6276954;22;20316;-83
2024/01/27 19:16:01;;;;;;;5.65;2.22;;;;;;;7.70;89.48;102705.97;6219020;22;20022;-83
2024/01/27 19:18:30;;;;;;;5.93;2.17;;;;;;;7.65;89.42;102696.09;6273355;22;20511;-83
2024/01/27 19:20:55;;;;;;;4.45;2.35;;;;;;;7.58;89.85;102705.56;6248693;22;20090;-83
2024/01/27 19:23:20;;;;;;;6.18;2.50;;;;;;;7.58;89.87;102711.72;6219450;22;20104;-84
2024/01/27 19:25:46;;;;;;;10.38;2.55;;;;;;;7.63;89.61;102719.69;6220998;22;20019;-82
2024/01/27 19:28:12;;;;;;;8.63;2.50;;;;;;;7.57;89.69;102728.88;6273419;22;20019;-83
2024/01/27 19:30:38;;;;;;;9.02;3.15;;;;;;;7.52;89.44;102734.28;6278275;22;20007;-82
2024/01/27 19:33:03;;;;;;;11.48;3.38;;;;;;;7.50;89.40;102736.44;6224076;22;20054;-83
2024/01/27 19:35:29;;;;;;;4.43;2.70;;;;;;;7.49;89.40;102739.41;6218116;22;20016;-84
2024/01/27 19:37:54;;;;;;;4.68;2.67;;;;;;;7.52;88.85;102744.19;6246461;22;20454;-82
2024/01/27 19:40:20;;;;;;;9.38;2.45;;;;;;;7.52;88.76;102741.53;6271397;22;20452;-82
2024/01/27 19:42:45;;;;;;;3.55;2.20;;;;;;;7.49;89.27;102734.84;6242429;22;20086;-83
2024/01/27 19:45:11;;;;;;;5.10;3.00;;;;;;;7.44;89.46;102740.25;6244555;22;20378;-84
2024/01/27 19:47:37;;;;;;;5.32;2.50;;;;;;;7.42;89.49;102733.56;6217942;22;20469;-83
2024/01/27 19:50:04;;;;;;;11.18;2.92;;;;;;;7.42;89.19;102744.28;6246475;22;20074;-83
2024/01/27 19:52:30;;;;;;;8.57;2.33;;;;;;;7.36;89.48;102746.22;6246686;22;20019;-86
2024/01/27 19:54:57;;;;;;;4.82;2.35;;;;;;;7.40;89.09;102741.91;6219436;22;20003;-85
2024/01/27 19:57:23;;;;;;;4.90;2.70;;;;;;;7.36;89.56;102745.41;6270983;22;20023;-82
2024/01/27 19:59:48;;;;;;;10.98;2.83;;;;;;;7.34;89.43;102736.88;6257139;22;20007;-83